createdAt,value
2018-09-04T00:50:58.547Z,78.08
2018-09-04T00:56:07.822Z,78.53
2018-09-04T02:33:13.568Z,81.17
2018-09-04T02:38:16.847Z,83.60
2018-09-04T02:43:20.193Z,83.52
2018-09-04T03:45:58.310Z,88.27
2018-09-04T03:51:01.651Z,87.33
2018-09-04T03:56:10.763Z,86.91
2018-09-04T04:35:46.395Z,89.47
2018-09-04T04:40:49.743Z,88.51
2018-09-04T04:45:59.631Z,87.48
2018-09-04T04:51:02.976Z,88.44
2018-09-04T04:56:18.341Z,88.03
2018-09-04T05:01:21.678Z,87.75
2018-09-04T05:06:28.165Z,87.84
2018-09-04T05:11:31.553Z,87.54
2018-09-04T05:16:49.875Z,87.57
2018-09-04T05:21:53.994Z,87.06
2018-09-04T05:26:57.337Z,87.15
2018-09-04T05:32:00.679Z,88.00
2018-09-04T05:37:04.010Z,87.78
2018-09-04T05:42:07.345Z,87.76
2018-09-04T05:47:10.674Z,88.32
2018-09-04T05:52:14.772Z,87.74
2018-09-04T05:57:18.111Z,87.78
2018-09-04T06:02:22.269Z,88.91
2018-09-04T06:07:25.575Z,87.68
2018-09-04T06:12:29.684Z,88.45
2018-09-04T06:17:33.023Z,88.66
2018-09-04T06:22:36.350Z,88.36
2018-09-04T06:27:39.691Z,88.50
2018-09-04T07:01:29.368Z,87.55
2018-09-04T07:06:32.711Z,87.71
2018-09-04T07:11:36.052Z,87.93
2018-09-04T08:02:41.696Z,88.93
2018-09-04T08:07:45.042Z,89.29
2018-09-04T08:12:49.142Z,88.56
2018-09-04T09:03:56.174Z,88.52
2018-09-04T09:08:59.519Z,88.45
2018-09-04T09:14:02.861Z,89.26
2018-09-04T10:05:07.819Z,90.74
2018-09-04T10:10:11.176Z,90.51
2018-09-04T11:01:10.247Z,89.95
2018-09-04T11:06:13.584Z,90.40
2018-09-04T11:11:16.921Z,89.98
2018-09-04T12:02:22.539Z,89.24
2018-09-04T12:07:25.903Z,88.57
2018-09-04T12:12:29.345Z,89.32
2018-09-04T13:03:34.813Z,87.81
2018-09-04T13:08:38.152Z,87.69
2018-09-04T13:13:41.488Z,86.73
2018-09-04T14:04:47.206Z,85.18
2018-09-04T14:09:50.541Z,84.36
2018-09-04T14:14:53.885Z,81.79
2018-09-04T14:48:43.282Z,77.16
2018-09-04T14:53:46.615Z,72.52
2018-09-04T14:58:50.713Z,73.72
2018-09-04T15:32:39.382Z,67.77
2018-09-04T15:37:42.725Z,66.11
2018-09-04T15:42:46.111Z,65.53
2018-09-04T15:47:49.404Z,63.16
2018-09-04T15:52:52.739Z,60.84
2018-09-04T15:57:56.062Z,60.60
2018-09-04T16:02:59.398Z,59.06
2018-09-04T16:08:02.747Z,58.52
2018-09-04T16:13:06.087Z,55.58
2018-09-04T16:18:09.416Z,57.08
2018-09-04T16:23:12.754Z,56.43
2018-09-04T16:28:16.100Z,55.53
2018-09-04T16:33:19.428Z,56.30
2018-09-04T16:38:22.762Z,56.41
2018-09-04T16:43:26.086Z,56.06
2018-09-04T16:48:29.433Z,55.97
2018-09-04T16:53:33.551Z,55.88
2018-09-04T16:58:37.649Z,55.24
2018-09-04T17:03:41.071Z,54.49
2018-09-04T17:08:45.477Z,54.31
2018-09-04T17:13:48.939Z,54.74
2018-09-04T17:18:52.293Z,56.15
2018-09-04T17:23:55.635Z,56.10
2018-09-04T17:28:58.962Z,57.56
2018-09-04T17:34:02.308Z,58.16
2018-09-04T17:39:06.418Z,58.83
2018-09-04T17:44:20.443Z,58.89
2018-09-04T17:49:23.857Z,58.71
2018-09-04T17:54:27.186Z,59.26
2018-09-04T17:59:30.531Z,60.45
2018-09-04T18:04:33.876Z,61.15
2018-09-04T18:09:37.215Z,61.69
2018-09-04T18:14:45.562Z,61.91
2018-09-04T18:19:48.926Z,62.13
2018-09-04T18:30:07.156Z,62.95
2018-09-04T18:35:14.544Z,63.27
2018-09-04T18:40:19.272Z,64.16
2018-09-04T18:45:54.664Z,64.08
2018-09-04T18:51:00.382Z,64.44
2018-09-04T18:56:09.456Z,64.68
2018-09-04T19:01:14.335Z,64.98
2018-09-04T19:06:20.814Z,65.30
2018-09-04T19:11:24.155Z,65.59
2018-09-04T19:16:27.497Z,65.92
2018-09-04T19:21:31.699Z,66.25
2018-09-04T19:26:46.049Z,67.06
2018-09-04T19:31:52.258Z,67.04
2018-09-04T19:41:58.420Z,67.53
2018-09-04T19:47:01.803Z,67.62
2018-09-04T19:52:05.909Z,68.26
2018-09-04T19:57:09.255Z,68.32
2018-09-04T20:02:12.627Z,68.62
2018-09-04T20:07:16.040Z,68.91
2018-09-04T20:12:19.359Z,69.23
2018-09-04T20:17:22.907Z,69.45
2018-09-04T20:22:26.322Z,69.58
2018-09-04T20:27:30.866Z,69.70
2018-09-04T20:32:34.263Z,69.92
2018-09-04T20:37:57.069Z,70.00
2018-09-04T20:43:02.898Z,70.11
2018-09-04T20:48:07.030Z,70.31
2018-09-04T20:53:10.375Z,70.66
2018-09-04T20:58:32.140Z,70.76
2018-09-04T21:03:53.294Z,70.78
2018-09-04T21:08:56.663Z,71.04
2018-09-04T21:14:00.803Z,71.31
2018-09-04T21:19:04.175Z,71.36
2018-09-04T21:24:07.654Z,71.91
2018-09-04T21:29:11.143Z,72.51
2018-09-04T21:34:15.270Z,73.62
2018-09-04T21:39:19.407Z,72.96
2018-09-04T21:44:41.076Z,72.87
2018-09-04T21:49:44.435Z,72.90
2018-09-04T21:54:47.816Z,73.30
2018-09-04T21:59:51.170Z,73.35
2018-09-04T22:04:55.319Z,73.25
2018-09-04T22:09:59.461Z,73.30
2018-09-04T22:15:02.969Z,73.25
2018-09-04T22:20:07.101Z,73.60
2018-09-04T22:25:11.246Z,73.60
2018-09-04T22:30:15.448Z,73.56
2018-09-04T22:35:19.192Z,73.52
2018-09-04T22:40:23.428Z,73.46
2018-09-04T22:45:27.008Z,73.46
2018-09-04T22:50:30.366Z,73.41
2018-09-04T22:55:39.871Z,73.39
2018-09-04T23:00:43.233Z,73.51
2018-09-04T23:05:47.359Z,73.84
2018-09-04T23:10:51.489Z,74.25
